sensor_id;sensor_type;location;lat;lon;timestamp;temperature;humidity
21481;DHT22;10902;48.158;8.634;2023-05-10T00:00:58;10.90;99.90
21481;DHT22;10902;48.158;8.634;2023-05-10T00:03:23;10.90;99.90
21481;DHT22;10902;48.158;8.634;2023-05-10T00:05:49;10.90;99.90
21481;DHT22;10902;48.158;8.634;2023-05-10T00:08:15;10.80;99.90
21481;DHT22;10902;48.158;8.634;2023-05-10T00:10:40;10.70;99.90
21481;DHT22;10902;48.158;8.634;2023-05-10T00:13:06;10.70;99.90
21481;DHT22;10902;48.158;8.634;2023-05-10T00:15:32;10.60;99.90
21481;DHT22;10902;48.158;8.634;2023-05-10T00:17:57;10.60;99.90
21481;DHT22;10902;48.158;8.634;2023-05-10T00:20:23;10.60;99.90
21481;DHT22;10902;48.158;8.634;2023-05-10T00:22:49;10.60;99.90
21481;DHT22;10902;48.158;8.634;2023-05-10T00:25:14;10.60;99.90
21481;DHT22;10902;48.158;8.634;2023-05-10T00:27:40;10.50;99.90
21481;DHT22;10902;48.158;8.634;2023-05-10T00:30:06;10.50;99.90
21481;DHT22;10902;48.158;8.634;2023-05-10T00:32:32;10.50;99.90
21481;DHT22;10902;48.158;8.634;2023-05-10T00:34:57;10.50;99.90
21481;DHT22;10902;48.158;8.634;2023-05-10T00:37:23;10.50;99.90
21481;DHT22;10902;48.158;8.634;2023-05-10T00:39:49;10.50;99.90
21481;DHT22;10902;48.158;8.634;2023-05-10T00:42:14;10.50;99.90
21481;DHT22;10902;48.158;8.634;2023-05-10T00:44:40;10.50;99.90
21481;DHT22;10902;48.158;8.634;2023-05-10T00:47:06;10.50;99.90
21481;DHT22;10902;48.158;8.634;2023-05-10T00:49:32;10.50;99.90
21481;DHT22;10902;48.158;8.634;2023-05-10T00:51:57;10.50;99.90
21481;DHT22;10902;48.158;8.634;2023-05-10T00:54:23;10.60;99.90
21481;DHT22;10902;48.158;8.634;2023-05-10T00:56:49;10.60;99.90
21481;DHT22;10902;48.158;8.634;2023-05-10T00:59:18;10.60;99.90
21481;DHT22;10902;48.158;8.634;2023-05-10T01:01:47;10.60;99.90
21481;DHT22;10902;48.158;8.634;2023-05-10T01:04:13;10.60;99.90
21481;DHT22;10902;48.158;8.634;2023-05-10T01:06:40;10.60;99.90
21481;DHT22;10902;48.158;8.634;2023-05-10T01:09:06;10.60;99.90
21481;DHT22;10902;48.158;8.634;2023-05-10T01:11:34;10.60;99.90
21481;DHT22;10902;48.158;8.634;2023-05-10T01:14:00;10.70;99.90
21481;DHT22;10902;48.158;8.634;2023-05-10T01:16:26;10.70;99.90
21481;DHT22;10902;48.158;8.634;2023-05-10T01:18:53;10.70;99.90
21481;DHT22;10902;48.158;8.634;2023-05-10T01:21:33;10.70;99.90
21481;DHT22;10902;48.158;8.634;2023-05-10T01:24:20;10.70;99.90
21481;DHT22;10902;48.158;8.634;2023-05-10T01:29:59;10.60;99.90
21481;DHT22;10902;48.158;8.634;2023-05-10T01:35:16;10.50;99.90
21481;DHT22;10902;48.158;8.634;2023-05-10T01:37:47;10.40;99.90
21481;DHT22;10902;48.158;8.634;2023-05-10T01:40:42;10.40;99.90
21481;DHT22;10902;48.158;8.634;2023-05-10T01:43:21;10.40;99.90
21481;DHT22;10902;48.158;8.634;2023-05-10T01:46:01;10.40;99.90
21481;DHT22;10902;48.158;8.634;2023-05-10T01:48:30;10.30;99.90
21481;DHT22;10902;48.158;8.634;2023-05-10T01:50:57;10.20;99.90
21481;DHT22;10902;48.158;8.634;2023-05-10T01:53:23;10.20;99.90
21481;DHT22;10902;48.158;8.634;2023-05-10T01:55:52;10.10;99.90
21481;DHT22;10902;48.158;8.634;2023-05-10T01:58:22;10.20;99.90
21481;DHT22;10902;48.158;8.634;2023-05-10T02:00:50;10.20;99.90
21481;DHT22;10902;48.158;8.634;2023-05-10T02:03:18;10.30;99.90
21481;DHT22;10902;48.158;8.634;2023-05-10T02:05:46;10.30;99.90
21481;DHT22;10902;48.158;8.634;2023-05-10T02:08:13;10.30;99.90
21481;DHT22;10902;48.158;8.634;2023-05-10T02:10:40;10.40;99.90
21481;DHT22;10902;48.158;8.634;2023-05-10T02:13:07;10.30;99.90
21481;DHT22;10902;48.158;8.634;2023-05-10T02:15:34;10.30;99.90
21481;DHT22;10902;48.158;8.634;2023-05-10T02:18:02;10.30;99.90
21481;DHT22;10902;48.158;8.634;2023-05-10T02:20:31;10.30;99.90
21481;DHT22;10902;48.158;8.634;2023-05-10T02:22:58;10.20;99.90
21481;DHT22;10902;48.158;8.634;2023-05-10T02:25:24;10.20;99.90
21481;DHT22;10902;48.158;8.634;2023-05-10T02:27:54;10.10;99.90
21481;DHT22;10902;48.158;8.634;2023-05-10T02:30:21;10.00;99.90
21481;DHT22;10902;48.158;8.634;2023-05-10T02:32:49;10.00;99.90
21481;DHT22;10902;48.158;8.634;2023-05-10T02:35:16;9.90;99.90
21481;DHT22;10902;48.158;8.634;2023-05-10T02:37:42;9.90;99.90
21481;DHT22;10902;48.158;8.634;2023-05-10T02:40:10;9.90;99.90
21481;DHT22;10902;48.158;8.634;2023-05-10T02:42:37;9.90;99.90
21481;DHT22;10902;48.158;8.634;2023-05-10T02:45:15;9.90;99.90
21481;DHT22;10902;48.158;8.634;2023-05-10T02:47:42;9.80;99.90
21481;DHT22;10902;48.158;8.634;2023-05-10T02:50:09;9.80;99.90
21481;DHT22;10902;48.158;8.634;2023-05-10T02:52:46;9.80;99.90
21481;DHT22;10902;48.158;8.634;2023-05-10T02:55:14;9.80;99.90
21481;DHT22;10902;48.158;8.634;2023-05-10T02:57:46;9.80;99.90
21481;DHT22;10902;48.158;8.634;2023-05-10T03:00:14;9.80;99.90
21481;DHT22;10902;48.158;8.634;2023-05-10T03:02:39;9.80;99.90
21481;DHT22;10902;48.158;8.634;2023-05-10T03:05:05;9.80;99.90
21481;DHT22;10902;48.158;8.634;2023-05-10T03:07:31;9.80;99.90
21481;DHT22;10902;48.158;8.634;2023-05-10T03:09:56;9.70;99.90
21481;DHT22;10902;48.158;8.634;2023-05-10T03:12:33;9.70;99.90
21481;DHT22;10902;48.158;8.634;2023-05-10T03:18:01;9.70;99.90
21481;DHT22;10902;48.158;8.634;2023-05-10T03:20:47;9.70;99.90
21481;DHT22;10902;48.158;8.634;2023-05-10T03:23:21;9.70;99.90
21481;DHT22;10902;48.158;8.634;2023-05-10T03:25:48;9.70;99.90
21481;DHT22;10902;48.158;8.634;2023-05-10T03:28:16;9.70;99.90
21481;DHT22;10902;48.158;8.634;2023-05-10T03:30:43;9.70;99.90
21481;DHT22;10902;48.158;8.634;2023-05-10T03:33:09;9.70;99.90
21481;DHT22;10902;48.158;8.634;2023-05-10T03:35:34;9.70;99.90
21481;DHT22;10902;48.158;8.634;2023-05-10T03:38:00;9.70;99.90
21481;DHT22;10902;48.158;8.634;2023-05-10T03:40:27;9.70;99.90
21481;DHT22;10902;48.158;8.634;2023-05-10T03:43:00;9.70;99.90
21481;DHT22;10902;48.158;8.634;2023-05-10T03:45:26;9.70;99.90
21481;DHT22;10902;48.158;8.634;2023-05-10T03:47:52;9.70;99.90
21481;DHT22;10902;48.158;8.634;2023-05-10T03:50:17;9.60;99.90
21481;DHT22;10902;48.158;8.634;2023-05-10T03:52:44;9.70;99.90
21481;DHT22;10902;48.158;8.634;2023-05-10T03:55:10;9.70;99.90
21481;DHT22;10902;48.158;8.634;2023-05-10T03:57:36;9.70;99.90
21481;DHT22;10902;48.158;8.634;2023-05-10T04:00:02;9.70;99.90
21481;DHT22;10902;48.158;8.634;2023-05-10T04:02:28;9.70;99.90
21481;DHT22;10902;48.158;8.634;2023-05-10T04:04:55;9.70;99.90
21481;DHT22;10902;48.158;8.634;2023-05-10T04:07:20;9.70;99.90
21481;DHT22;10902;48.158;8.634;2023-05-10T04:09:46;9.70;99.90
21481;DHT22;10902;48.158;8.634;2023-05-10T04:12:12;9.70;99.90
21481;DHT22;10902;48.158;8.634;2023-05-10T04:14:37;9.70;99.90
21481;DHT22;10902;48.158;8.634;2023-05-10T04:17:03;9.80;99.90
21481;DHT22;10902;48.158;8.634;2023-05-10T04:19:32;9.80;99.90
21481;DHT22;10902;48.158;8.634;2023-05-10T04:21:58;9.80;99.90
21481;DHT22;10902;48.158;8.634;2023-05-10T04:24:24;9.80;99.90
21481;DHT22;10902;48.158;8.634;2023-05-10T04:26:50;9.80;99.90
21481;DHT22;10902;48.158;8.634;2023-05-10T04:29:15;9.80;99.90
21481;DHT22;10902;48.158;8.634;2023-05-10T04:31:41;9.80;99.90
21481;DHT22;10902;48.158;8.634;2023-05-10T04:34:07;9.80;99.90
21481;DHT22;10902;48.158;8.634;2023-05-10T04:36:32;9.80;99.90
21481;DHT22;10902;48.158;8.634;2023-05-10T04:39:00;9.80;99.90
21481;DHT22;10902;48.158;8.634;2023-05-10T04:41:26;9.80;99.90
21481;DHT22;10902;48.158;8.634;2023-05-10T04:43:51;9.80;99.90
21481;DHT22;10902;48.158;8.634;2023-05-10T04:46:17;9.80;99.90
21481;DHT22;10902;48.158;8.634;2023-05-10T04:48:42;9.80;99.90
21481;DHT22;10902;48.158;8.634;2023-05-10T04:51:08;9.90;99.90
21481;DHT22;10902;48.158;8.634;2023-05-10T04:53:34;9.90;99.90
21481;DHT22;10902;48.158;8.634;2023-05-10T04:55:59;9.90;99.90
21481;DHT22;10902;48.158;8.634;2023-05-10T04:58:25;10.00;99.90
21481;DHT22;10902;48.158;8.634;2023-05-10T05:00:51;10.00;99.90
21481;DHT22;10902;48.158;8.634;2023-05-10T05:03:16;10.10;99.90
21481;DHT22;10902;48.158;8.634;2023-05-10T05:05:43;10.10;99.90
21481;DHT22;10902;48.158;8.634;2023-05-10T05:08:09;10.10;99.90
21481;DHT22;10902;48.158;8.634;2023-05-10T05:10:34;10.10;99.90
21481;DHT22;10902;48.158;8.634;2023-05-10T05:13:00;10.10;99.90
21481;DHT22;10902;48.158;8.634;2023-05-10T05:15:26;10.00;99.90
21481;DHT22;10902;48.158;8.634;2023-05-10T05:17:51;10.00;99.90
21481;DHT22;10902;48.158;8.634;2023-05-10T05:20:17;10.00;99.90
21481;DHT22;10902;48.158;8.634;2023-05-10T05:22:44;10.10;99.90
21481;DHT22;10902;48.158;8.634;2023-05-10T05:25:10;10.10;99.90
21481;DHT22;10902;48.158;8.634;2023-05-10T05:27:37;10.20;99.90
21481;DHT22;10902;48.158;8.634;2023-05-10T05:30:03;10.30;99.90
21481;DHT22;10902;48.158;8.634;2023-05-10T05:32:29;10.30;99.90
21481;DHT22;10902;48.158;8.634;2023-05-10T05:34:55;10.30;99.90
21481;DHT22;10902;48.158;8.634;2023-05-10T05:37:21;10.20;99.90
21481;DHT22;10902;48.158;8.634;2023-05-10T05:39:47;10.30;99.90
21481;DHT22;10902;48.158;8.634;2023-05-10T05:42:13;10.30;99.90
21481;DHT22;10902;48.158;8.634;2023-05-10T05:44:40;10.30;99.90
21481;DHT22;10902;48.158;8.634;2023-05-10T05:47:06;10.30;99.90
21481;DHT22;10902;48.158;8.634;2023-05-10T05:49:32;10.30;99.90
21481;DHT22;10902;48.158;8.634;2023-05-10T05:52:02;10.30;99.90
21481;DHT22;10902;48.158;8.634;2023-05-10T05:54:27;10.30;99.90
21481;DHT22;10902;48.158;8.634;2023-05-10T05:56:54;10.30;99.90
21481;DHT22;10902;48.158;8.634;2023-05-10T05:59:21;10.40;99.90
21481;DHT22;10902;48.158;8.634;2023-05-10T06:01:46;10.40;99.90
21481;DHT22;10902;48.158;8.634;2023-05-10T06:04:12;10.40;99.90
21481;DHT22;10902;48.158;8.634;2023-05-10T06:06:38;10.40;99.90
21481;DHT22;10902;48.158;8.634;2023-05-10T06:09:03;10.40;99.90
21481;DHT22;10902;48.158;8.634;2023-05-10T06:11:29;10.50;99.90
21481;DHT22;10902;48.158;8.634;2023-05-10T06:13:57;10.70;99.90
21481;DHT22;10902;48.158;8.634;2023-05-10T06:16:23;10.70;99.90
21481;DHT22;10902;48.158;8.634;2023-05-10T06:18:48;10.70;99.90
21481;DHT22;10902;48.158;8.634;2023-05-10T06:21:14;10.70;99.90
21481;DHT22;10902;48.158;8.634;2023-05-10T06:23:40;10.70;99.90
21481;DHT22;10902;48.158;8.634;2023-05-10T06:26:06;10.70;99.90
21481;DHT22;10902;48.158;8.634;2023-05-10T06:28:31;10.80;99.90
21481;DHT22;10902;48.158;8.634;2023-05-10T06:30:57;10.80;99.90
21481;DHT22;10902;48.158;8.634;2023-05-10T06:33:23;11.00;99.90
21481;DHT22;10902;48.158;8.634;2023-05-10T06:35:48;11.10;99.90
21481;DHT22;10902;48.158;8.634;2023-05-10T06:38:14;11.30;99.90
21481;DHT22;10902;48.158;8.634;2023-05-10T06:40:43;11.40;99.90
21481;DHT22;10902;48.158;8.634;2023-05-10T06:43:09;11.50;99.90
21481;DHT22;10902;48.158;8.634;2023-05-10T06:45:35;11.40;99.90
21481;DHT22;10902;48.158;8.634;2023-05-10T06:48:01;11.40;99.90
21481;DHT22;10902;48.158;8.634;2023-05-10T06:50:26;11.40;99.90
21481;DHT22;10902;48.158;8.634;2023-05-10T06:52:52;11.40;99.90
21481;DHT22;10902;48.158;8.634;2023-05-10T06:55:17;11.30;99.90
21481;DHT22;10902;48.158;8.634;2023-05-10T06:57:43;11.30;99.90
21481;DHT22;10902;48.158;8.634;2023-05-10T07:00:09;11.40;99.90
21481;DHT22;10902;48.158;8.634;2023-05-10T07:02:37;11.40;99.90
21481;DHT22;10902;48.158;8.634;2023-05-10T07:05:03;11.50;99.90
21481;DHT22;10902;48.158;8.634;2023-05-10T07:07:29;11.50;99.90
21481;DHT22;10902;48.158;8.634;2023-05-10T07:09:55;11.30;99.90
21481;DHT22;10902;48.158;8.634;2023-05-10T07:12:21;11.10;99.90
21481;DHT22;10902;48.158;8.634;2023-05-10T07:14:47;10.90;99.90
21481;DHT22;10902;48.158;8.634;2023-05-10T07:17:12;10.70;99.90
21481;DHT22;10902;48.158;8.634;2023-05-10T07:19:38;10.60;99.90
21481;DHT22;10902;48.158;8.634;2023-05-10T07:22:04;10.30;99.90
21481;DHT22;10902;48.158;8.634;2023-05-10T07:24:29;10.20;99.90
21481;DHT22;10902;48.158;8.634;2023-05-10T07:26:56;10.20;99.90
21481;DHT22;10902;48.158;8.634;2023-05-10T07:29:22;10.10;99.90
21481;DHT22;10902;48.158;8.634;2023-05-10T07:31:47;10.00;99.90
21481;DHT22;10902;48.158;8.634;2023-05-10T07:34:13;9.90;99.90
21481;DHT22;10902;48.158;8.634;2023-05-10T07:36:38;9.90;99.90
21481;DHT22;10902;48.158;8.634;2023-05-10T07:39:04;9.80;99.90
21481;DHT22;10902;48.158;8.634;2023-05-10T07:41:30;9.80;99.90
21481;DHT22;10902;48.158;8.634;2023-05-10T07:43:56;9.70;99.90
21481;DHT22;10902;48.158;8.634;2023-05-10T07:46:21;9.80;99.90
21481;DHT22;10902;48.158;8.634;2023-05-10T07:48:47;9.80;99.90
21481;DHT22;10902;48.158;8.634;2023-05-10T07:51:12;10.00;99.90
21481;DHT22;10902;48.158;8.634;2023-05-10T07:53:38;10.10;99.90
21481;DHT22;10902;48.158;8.634;2023-05-10T07:58:50;10.40;99.90
21481;DHT22;10902;48.158;8.634;2023-05-10T08:01:16;10.60;99.90
21481;DHT22;10902;48.158;8.634;2023-05-10T08:03:42;10.80;99.90
21481;DHT22;10902;48.158;8.634;2023-05-10T08:06:07;10.90;99.90
21481;DHT22;10902;48.158;8.634;2023-05-10T08:08:33;10.90;99.90
21481;DHT22;10902;48.158;8.634;2023-05-10T08:10:58;10.80;99.90
21481;DHT22;10902;48.158;8.634;2023-05-10T08:13:24;10.80;99.90
21481;DHT22;10902;48.158;8.634;2023-05-10T08:15:50;10.70;99.90
21481;DHT22;10902;48.158;8.634;2023-05-10T08:18:18;10.60;99.90
21481;DHT22;10902;48.158;8.634;2023-05-10T08:20:44;10.60;99.90
21481;DHT22;10902;48.158;8.634;2023-05-10T08:23:09;10.90;99.90
21481;DHT22;10902;48.158;8.634;2023-05-10T08:25:35;10.70;99.90
21481;DHT22;10902;48.158;8.634;2023-05-10T08:28:00;10.70;99.90
21481;DHT22;10902;48.158;8.634;2023-05-10T08:30:26;10.50;99.90
21481;DHT22;10902;48.158;8.634;2023-05-10T08:32:51;10.50;99.90
21481;DHT22;10902;48.158;8.634;2023-05-10T08:35:17;10.70;99.90
21481;DHT22;10902;48.158;8.634;2023-05-10T08:37:42;10.70;99.90
21481;DHT22;10902;48.158;8.634;2023-05-10T08:40:08;10.60;99.90
21481;DHT22;10902;48.158;8.634;2023-05-10T08:42:36;10.80;99.90
21481;DHT22;10902;48.158;8.634;2023-05-10T08:45:07;10.90;99.90
21481;DHT22;10902;48.158;8.634;2023-05-10T08:47:36;10.80;99.90
21481;DHT22;10902;48.158;8.634;2023-05-10T08:50:03;10.80;99.90
21481;DHT22;10902;48.158;8.634;2023-05-10T08:52:30;11.00;99.90
21481;DHT22;10902;48.158;8.634;2023-05-10T08:54:56;11.00;99.90
21481;DHT22;10902;48.158;8.634;2023-05-10T08:57:22;11.00;99.90
21481;DHT22;10902;48.158;8.634;2023-05-10T08:59:47;11.20;99.90
21481;DHT22;10902;48.158;8.634;2023-05-10T09:02:13;11.50;99.90
21481;DHT22;10902;48.158;8.634;2023-05-10T09:04:39;11.60;99.90
21481;DHT22;10902;48.158;8.634;2023-05-10T09:07:06;11.70;99.90
21481;DHT22;10902;48.158;8.634;2023-05-10T09:09:32;11.60;99.90
21481;DHT22;10902;48.158;8.634;2023-05-10T09:11:58;12.20;99.90
21481;DHT22;10902;48.158;8.634;2023-05-10T09:14:25;12.40;99.90
21481;DHT22;10902;48.158;8.634;2023-05-10T09:16:51;12.70;99.90
21481;DHT22;10902;48.158;8.634;2023-05-10T09:19:17;12.80;99.90
21481;DHT22;10902;48.158;8.634;2023-05-10T09:21:43;12.30;99.90
21481;DHT22;10902;48.158;8.634;2023-05-10T09:24:09;12.50;99.90
21481;DHT22;10902;48.158;8.634;2023-05-10T09:26:35;12.60;99.90
21481;DHT22;10902;48.158;8.634;2023-05-10T09:29:02;12.70;99.90
21481;DHT22;10902;48.158;8.634;2023-05-10T09:31:47;12.50;99.90
21481;DHT22;10902;48.158;8.634;2023-05-10T09:34:17;13.10;99.90
21481;DHT22;10902;48.158;8.634;2023-05-10T09:36:51;13.80;99.90
21481;DHT22;10902;48.158;8.634;2023-05-10T09:39:16;14.20;99.90
21481;DHT22;10902;48.158;8.634;2023-05-10T09:41:43;13.70;99.90
21481;DHT22;10902;48.158;8.634;2023-05-10T09:44:09;13.70;99.90
21481;DHT22;10902;48.158;8.634;2023-05-10T09:46:38;13.30;99.90
21481;DHT22;10902;48.158;8.634;2023-05-10T09:49:05;13.50;99.90
21481;DHT22;10902;48.158;8.634;2023-05-10T09:51:31;13.90;99.90
21481;DHT22;10902;48.158;8.634;2023-05-10T09:54:14;14.30;99.90
21481;DHT22;10902;48.158;8.634;2023-05-10T09:56:41;14.90;99.90
21481;DHT22;10902;48.158;8.634;2023-05-10T09:59:10;15.60;99.90
21481;DHT22;10902;48.158;8.634;2023-05-10T10:01:36;15.60;99.90
21481;DHT22;10902;48.158;8.634;2023-05-10T10:04:07;14.20;99.90
21481;DHT22;10902;48.158;8.634;2023-05-10T10:06:40;14.50;99.90
21481;DHT22;10902;48.158;8.634;2023-05-10T10:09:06;15.20;99.90
21481;DHT22;10902;48.158;8.634;2023-05-10T10:11:35;15.40;99.90
21481;DHT22;10902;48.158;8.634;2023-05-10T10:14:01;15.60;99.90
21481;DHT22;10902;48.158;8.634;2023-05-10T10:16:31;15.20;99.90
21481;DHT22;10902;48.158;8.634;2023-05-10T10:18:57;14.70;99.90
21481;DHT22;10902;48.158;8.634;2023-05-10T10:21:23;15.00;99.90
21481;DHT22;10902;48.158;8.634;2023-05-10T10:23:49;15.50;99.90
21481;DHT22;10902;48.158;8.634;2023-05-10T10:26:16;15.80;99.90
21481;DHT22;10902;48.158;8.634;2023-05-10T10:32:54;15.40;99.90
21481;DHT22;10902;48.158;8.634;2023-05-10T10:34:48;14.50;99.90
21481;DHT22;10902;48.158;8.634;2023-05-10T10:37:13;13.90;99.90
21481;DHT22;10902;48.158;8.634;2023-05-10T10:39:39;13.10;99.90
21481;DHT22;10902;48.158;8.634;2023-05-10T10:42:05;13.00;99.90
21481;DHT22;10902;48.158;8.634;2023-05-10T10:52:24;10.20;99.90
21481;DHT22;10902;48.158;8.634;2023-05-10T10:55:05;9.60;99.90
21481;DHT22;10902;48.158;8.634;2023-05-10T10:57:54;9.60;99.90
21481;DHT22;10902;48.158;8.634;2023-05-10T11:00:29;9.50;99.90
21481;DHT22;10902;48.158;8.634;2023-05-10T11:03:11;9.50;99.90
21481;DHT22;10902;48.158;8.634;2023-05-10T11:05:41;9.70;99.90
21481;DHT22;10902;48.158;8.634;2023-05-10T11:08:14;9.80;99.90
21481;DHT22;10902;48.158;8.634;2023-05-10T11:10:48;9.80;99.90
21481;DHT22;10902;48.158;8.634;2023-05-10T11:13:14;9.70;99.90
21481;DHT22;10902;48.158;8.634;2023-05-10T11:15:40;9.70;99.90
21481;DHT22;10902;48.158;8.634;2023-05-10T11:18:31;9.60;99.90
21481;DHT22;10902;48.158;8.634;2023-05-10T11:20:59;9.50;99.90
21481;DHT22;10902;48.158;8.634;2023-05-10T11:23:30;9.60;99.90
21481;DHT22;10902;48.158;8.634;2023-05-10T11:25:56;9.80;99.90
21481;DHT22;10902;48.158;8.634;2023-05-10T11:28:21;9.80;99.90
21481;DHT22;10902;48.158;8.634;2023-05-10T11:30:47;10.10;99.90
21481;DHT22;10902;48.158;8.634;2023-05-10T11:33:17;10.60;99.90
21481;DHT22;10902;48.158;8.634;2023-05-10T11:35:43;11.30;99.90
21481;DHT22;10902;48.158;8.634;2023-05-10T11:38:10;11.90;99.90
21481;DHT22;10902;48.158;8.634;2023-05-10T11:40:36;12.50;99.90
21481;DHT22;10902;48.158;8.634;2023-05-10T11:43:03;13.30;99.90
21481;DHT22;10902;48.158;8.634;2023-05-10T11:45:32;13.40;99.90
21481;DHT22;10902;48.158;8.634;2023-05-10T11:47:58;14.50;99.90
21481;DHT22;10902;48.158;8.634;2023-05-10T11:50:24;15.00;99.90
21481;DHT22;10902;48.158;8.634;2023-05-10T11:52:54;15.40;99.90
21481;DHT22;10902;48.158;8.634;2023-05-10T11:55:20;15.80;99.90
21481;DHT22;10902;48.158;8.634;2023-05-10T11:57:46;16.40;99.90
21481;DHT22;10902;48.158;8.634;2023-05-10T12:00:13;16.20;99.90
21481;DHT22;10902;48.158;8.634;2023-05-10T12:02:39;16.40;99.90
21481;DHT22;10902;48.158;8.634;2023-05-10T12:05:05;17.10;99.90
21481;DHT22;10902;48.158;8.634;2023-05-10T12:07:31;16.30;99.90
21481;DHT22;10902;48.158;8.634;2023-05-10T12:10:11;16.60;99.90
21481;DHT22;10902;48.158;8.634;2023-05-10T12:12:41;16.90;99.90
21481;DHT22;10902;48.158;8.634;2023-05-10T12:15:23;16.70;99.90
21481;DHT22;10902;48.158;8.634;2023-05-10T12:17:50;16.30;99.90
21481;DHT22;10902;48.158;8.634;2023-05-10T12:20:18;17.80;99.90
21481;DHT22;10902;48.158;8.634;2023-05-10T12:22:52;19.40;99.90
21481;DHT22;10902;48.158;8.634;2023-05-10T12:25:22;20.00;99.90
21481;DHT22;10902;48.158;8.634;2023-05-10T12:27:52;18.10;99.90
21481;DHT22;10902;48.158;8.634;2023-05-10T12:30:28;17.70;99.90
21481;DHT22;10902;48.158;8.634;2023-05-10T12:33:06;18.20;99.90
21481;DHT22;10902;48.158;8.634;2023-05-10T12:35:33;17.80;99.90
21481;DHT22;10902;48.158;8.634;2023-05-10T12:38:34;16.70;99.90
21481;DHT22;10902;48.158;8.634;2023-05-10T12:41:09;14.70;99.90
21481;DHT22;10902;48.158;8.634;2023-05-10T12:43:35;13.80;99.90
21481;DHT22;10902;48.158;8.634;2023-05-10T12:46:08;14.40;99.90
21481;DHT22;10902;48.158;8.634;2023-05-10T12:48:35;14.70;99.90
21481;DHT22;10902;48.158;8.634;2023-05-10T12:51:03;14.50;99.90
21481;DHT22;10902;48.158;8.634;2023-05-10T12:53:28;14.60;99.90
21481;DHT22;10902;48.158;8.634;2023-05-10T12:55:54;15.00;99.90
21481;DHT22;10902;48.158;8.634;2023-05-10T12:58:20;15.40;99.90
21481;DHT22;10902;48.158;8.634;2023-05-10T13:00:46;15.50;99.90
21481;DHT22;10902;48.158;8.634;2023-05-10T13:03:11;15.90;99.90
21481;DHT22;10902;48.158;8.634;2023-05-10T13:05:38;15.50;99.90
21481;DHT22;10902;48.158;8.634;2023-05-10T13:08:04;15.60;99.90
21481;DHT22;10902;48.158;8.634;2023-05-10T13:10:30;15.80;99.90
21481;DHT22;10902;48.158;8.634;2023-05-10T13:12:57;17.00;99.90
21481;DHT22;10902;48.158;8.634;2023-05-10T13:15:23;17.50;99.90
21481;DHT22;10902;48.158;8.634;2023-05-10T13:17:49;17.70;99.90
21481;DHT22;10902;48.158;8.634;2023-05-10T13:20:14;17.30;99.90
21481;DHT22;10902;48.158;8.634;2023-05-10T13:22:42;17.00;99.90
21481;DHT22;10902;48.158;8.634;2023-05-10T13:25:08;16.60;99.90
21481;DHT22;10902;48.158;8.634;2023-05-10T13:27:34;16.00;99.90
21481;DHT22;10902;48.158;8.634;2023-05-10T13:29:59;15.40;99.90
21481;DHT22;10902;48.158;8.634;2023-05-10T13:32:25;14.70;99.90
21481;DHT22;10902;48.158;8.634;2023-05-10T13:34:51;13.70;99.90
21481;DHT22;10902;48.158;8.634;2023-05-10T13:37:17;13.10;99.90
21481;DHT22;10902;48.158;8.634;2023-05-10T13:39:42;12.50;99.90
21481;DHT22;10902;48.158;8.634;2023-05-10T13:42:08;12.00;99.90
21481;DHT22;10902;48.158;8.634;2023-05-10T13:44:34;11.90;99.90
21481;DHT22;10902;48.158;8.634;2023-05-10T13:46:59;12.20;99.90
21481;DHT22;10902;48.158;8.634;2023-05-10T13:49:25;12.80;99.90
21481;DHT22;10902;48.158;8.634;2023-05-10T13:51:51;13.70;99.90
21481;DHT22;10902;48.158;8.634;2023-05-10T13:54:17;14.00;99.90
21481;DHT22;10902;48.158;8.634;2023-05-10T13:56:45;14.20;99.90
21481;DHT22;10902;48.158;8.634;2023-05-10T13:59:12;14.50;99.90
21481;DHT22;10902;48.158;8.634;2023-05-10T14:01:39;14.70;99.90
21481;DHT22;10902;48.158;8.634;2023-05-10T14:04:05;14.90;99.90
21481;DHT22;10902;48.158;8.634;2023-05-10T14:06:31;14.80;99.90
21481;DHT22;10902;48.158;8.634;2023-05-10T14:08:57;14.60;99.90
21481;DHT22;10902;48.158;8.634;2023-05-10T14:11:22;14.10;99.90
21481;DHT22;10902;48.158;8.634;2023-05-10T14:13:48;13.80;99.90
21481;DHT22;10902;48.158;8.634;2023-05-10T14:16:14;13.50;99.90
21481;DHT22;10902;48.158;8.634;2023-05-10T14:18:40;13.30;99.90
21481;DHT22;10902;48.158;8.634;2023-05-10T14:21:05;12.90;99.90
21481;DHT22;10902;48.158;8.634;2023-05-10T14:23:31;12.80;99.90
21481;DHT22;10902;48.158;8.634;2023-05-10T14:25:57;12.60;99.90
21481;DHT22;10902;48.158;8.634;2023-05-10T14:28:23;12.10;99.90
21481;DHT22;10902;48.158;8.634;2023-05-10T14:30:50;11.50;99.90
21481;DHT22;10902;48.158;8.634;2023-05-10T14:33:16;11.10;99.90
21481;DHT22;10902;48.158;8.634;2023-05-10T14:35:42;10.90;99.90
21481;DHT22;10902;48.158;8.634;2023-05-10T14:38:07;10.90;99.90
21481;DHT22;10902;48.158;8.634;2023-05-10T14:40:33;10.80;99.90
21481;DHT22;10902;48.158;8.634;2023-05-10T14:42:59;10.90;99.90
21481;DHT22;10902;48.158;8.634;2023-05-10T14:45:25;11.10;99.90
21481;DHT22;10902;48.158;8.634;2023-05-10T14:47:50;11.20;99.90
21481;DHT22;10902;48.158;8.634;2023-05-10T14:50:16;11.50;99.90
21481;DHT22;10902;48.158;8.634;2023-05-10T14:52:43;12.20;99.90
21481;DHT22;10902;48.158;8.634;2023-05-10T14:55:09;13.10;99.90
21481;DHT22;10902;48.158;8.634;2023-05-10T14:57:35;14.00;99.90
21481;DHT22;10902;48.158;8.634;2023-05-10T15:00:00;14.80;99.90
21481;DHT22;10902;48.158;8.634;2023-05-10T15:02:26;15.10;99.90
21481;DHT22;10902;48.158;8.634;2023-05-10T15:04:51;15.60;99.90
21481;DHT22;10902;48.158;8.634;2023-05-10T15:07:17;15.50;99.90
21481;DHT22;10902;48.158;8.634;2023-05-10T15:09:46;15.40;99.90
21481;DHT22;10902;48.158;8.634;2023-05-10T15:12:12;15.10;99.90
21481;DHT22;10902;48.158;8.634;2023-05-10T15:14:37;15.00;99.90
21481;DHT22;10902;48.158;8.634;2023-05-10T15:17:05;14.90;99.90
21481;DHT22;10902;48.158;8.634;2023-05-10T15:19:31;15.00;99.90
21481;DHT22;10902;48.158;8.634;2023-05-10T15:21:58;15.00;99.90
21481;DHT22;10902;48.158;8.634;2023-05-10T15:24:24;14.80;99.90
21481;DHT22;10902;48.158;8.634;2023-05-10T15:26:50;15.10;99.90
21481;DHT22;10902;48.158;8.634;2023-05-10T15:29:15;15.30;99.90
21481;DHT22;10902;48.158;8.634;2023-05-10T15:31:46;15.30;99.90
21481;DHT22;10902;48.158;8.634;2023-05-10T15:34:12;15.20;99.90
21481;DHT22;10902;48.158;8.634;2023-05-10T15:36:38;15.70;99.90
21481;DHT22;10902;48.158;8.634;2023-05-10T15:39:03;16.30;99.90
21481;DHT22;10902;48.158;8.634;2023-05-10T15:41:29;16.50;99.90
21481;DHT22;10902;48.158;8.634;2023-05-10T15:43:55;15.80;99.90
21481;DHT22;10902;48.158;8.634;2023-05-10T15:46:21;14.90;99.90
21481;DHT22;10902;48.158;8.634;2023-05-10T15:48:46;14.20;99.90
21481;DHT22;10902;48.158;8.634;2023-05-10T15:51:12;13.80;99.90
21481;DHT22;10902;48.158;8.634;2023-05-10T15:53:38;13.50;99.90
21481;DHT22;10902;48.158;8.634;2023-05-10T15:56:05;13.90;99.90
21481;DHT22;10902;48.158;8.634;2023-05-10T15:58:31;13.90;99.90